Airfield :
LOGIN :

Register | Disclaimer

   EN    FR    IT 

 










Legend :    VFR   Marginal VFR   IFR   Intensive IFR   Very Intensive IFR
Visi :
Ceiling :
>= 8 km
>= 3000ft
5 to 8 km
1000 to 3000 ft
1500m to 5 km
500 to 1000 ft
800 to 1500m
200 to 500 ft
< 800m
< 200 ft
Symbols :   Thunderstorms  Fog  Heavy snow  Heavy precipitations  Wind > 20 kt
SIGMETs :     Misc.  Thunderstorms  Icing  Turbulence  Mountain Waves  Volcanic Ashes







- Airport Elevation : 0 ft


ETEB - Ansbach Army Heliport

CURRENT METAR :
  • 150156Z AUTO 05007KT 9999 OVC024 M A3022 RMK AO2 SLPNO ALSTG ESTMD $

EXPIRED METARs :
  • 150056Z AUTO 07004KT 9999 OVC024 M A3021 RMK AO2 SLPNO ALSTG ESTMD $
  • 142356Z AUTO 05004KT 9999 OVC024 M A3021 RMK AO2 SLPNO ALSTG ESTMD 53003 $

TAF AMD TAF ETEB
Valid from the 14 at 20:00 until the 15 at 20:00 UTC


142019Z 1420/1520 VRB06KT 9999 OVC021 QNH3010INS
BECMG 1422/1423 VRB06KT 9999 BKN023 620231 QNH3018INS
BECMG 1515/1516 VRB06KT 9999 SCT018 QNH3016INS TXM01/1513Z TNM03/1507Z LAST NO AMDS AFT 1420 NEXT 1706
No reported NOTAMs for that airfield.



MET'MAP, your aeronautical weather chart ! - Copyright ORBIFLY December 2007 - Disclaimer

ORBIFLY MET'MAP TEAM :

Programming & Development : Alexandra Zaïnal
Concept & Development : Baudouin d'Aumeries
Co-Development & Prog : Marc-Olivier Méhu
Technical & hardware support : Manuel Goepfert

Contact : metmap@orbifly.com




SOURCES & CREDITS :

   NOAA